Time;durP1;ratioP1;P1;durP2;ratioP2;P2;SDS_P1;SDS_P2;PMS_P1;PMS_P2;Temp;Humidity;BMP_temperature;BMP_pressure;BME280_temperature;BME280_humidity;BME280_pressure;Samples;Min_cycle;Max_cycle;Signal;HPM_P1;HPM_P2
2023/01/12 00:01:50;;;;;;;3.72;1.80;;;8.40;99.90;;;;;;5031675;28;20037;-68
2023/01/12 00:04:16;;;;;;;7.97;2.50;;;8.40;99.90;;;;;;5030604;28;20048;-68
2023/01/12 00:06:42;;;;;;;7.70;3.35;;;8.40;99.90;;;;;;5031362;28;20112;-68
2023/01/12 00:09:08;;;;;;;10.02;2.33;;;8.40;99.90;;;;;;5031425;28;20108;-67
2023/01/12 00:11:35;;;;;;;10.93;2.45;;;8.40;99.90;;;;;;5031468;28;20030;-67
2023/01/12 00:14:01;;;;;;;9.60;2.40;;;8.40;99.90;;;;;;5030402;28;20552;-67
2023/01/12 00:16:33;;;;;;;11.45;3.08;;;8.40;99.90;;;;;;5031419;28;20045;-67
2023/01/12 00:19:09;;;;;;;15.18;3.47;;;8.40;99.90;;;;;;5031439;28;20045;-67
2023/01/12 00:22:10;;;;;;;10.10;3.10;;;8.40;99.90;;;;;;5031423;28;20049;-67
2023/01/12 00:24:37;;;;;;;14.50;2.80;;;8.40;99.90;;;;;;5029878;28;20046;-67
2023/01/12 00:27:08;;;;;;;14.32;2.67;;;8.40;99.90;;;;;;5031208;28;20508;-67
2023/01/12 00:29:35;;;;;;;11.98;3.08;;;8.30;99.90;;;;;;5031258;28;20048;-67
2023/01/12 00:32:00;;;;;;;7.78;2.95;;;8.40;99.90;;;;;;5031164;28;20444;-67
2023/01/12 00:34:26;;;;;;;13.02;3.05;;;8.40;99.90;;;;;;5030554;28;20117;-67
2023/01/12 00:36:52;;;;;;;13.88;2.83;;;8.30;99.90;;;;;;5030947;28;20694;-67
2023/01/12 00:39:18;;;;;;;10.25;3.22;;;8.40;99.90;;;;;;5031269;28;20041;-67
2023/01/12 00:47:14;;;;;;;11.23;2.63;;;8.40;99.90;;;;;;5029556;28;20045;-67
2023/01/12 00:49:40;;;;;;;12.02;2.75;;;8.50;99.90;;;;;;5029630;28;20387;-67
2023/01/12 00:52:09;;;;;;;9.20;2.70;;;8.50;99.90;;;;;;5030784;28;20498;-67
2023/01/12 00:54:34;;;;;;;11.48;4.20;;;8.40;99.90;;;;;;5028687;28;20053;-67
2023/01/12 00:57:01;;;;;;;10.43;3.00;;;8.50;99.90;;;;;;5029729;28;20045;-67
2023/01/12 00:59:27;;;;;;;12.40;3.05;;;8.50;99.90;;;;;;5030426;28;20483;-67
2023/01/12 01:01:53;;;;;;;8.13;2.58;;;8.50;99.90;;;;;;5031094;28;20099;-67
2023/01/12 01:04:18;;;;;;;11.02;2.85;;;8.50;99.90;;;;;;5029747;28;20650;-67
2023/01/12 01:06:44;;;;;;;6.75;2.15;;;8.50;99.90;;;;;;5030793;28;20033;-67
2023/01/12 01:09:10;;;;;;;16.85;3.05;;;8.40;99.90;;;;;;5030880;28;20034;-67
2023/01/12 01:11:36;;;;;;;9.40;3.28;;;8.40;99.90;;;;;;5030950;28;20045;-67
2023/01/12 01:14:02;;;;;;;7.53;2.30;;;8.40;99.90;;;;;;5029601;28;20045;-67
2023/01/12 01:16:28;;;;;;;12.68;2.78;;;8.40;99.90;;;;;;5030911;28;20076;-67
2023/01/12 01:18:54;;;;;;;14.48;2.67;;;8.40;99.90;;;;;;5041710;28;20041;-68
2023/01/12 01:21:21;;;;;;;16.45;2.85;;;8.40;99.90;;;;;;5050637;28;20037;-67
2023/01/12 01:23:47;;;;;;;8.48;2.88;;;8.40;99.90;;;;;;5049702;28;20045;-67
2023/01/12 01:26:15;;;;;;;13.15;3.75;;;8.40;99.90;;;;;;5050661;28;20037;-67
2023/01/12 01:28:41;;;;;;;13.30;2.67;;;8.40;99.90;;;;;;5050530;28;20044;-68
2023/01/12 01:31:12;;;;;;;9.82;2.83;;;8.40;99.90;;;;;;5050563;28;20044;-68
2023/01/12 01:33:39;;;;;;;9.75;3.03;;;8.50;99.90;;;;;;5050167;28;20052;-68
2023/01/12 01:36:05;;;;;;;12.73;2.78;;;8.40;99.90;;;;;;5049977;28;20044;-67
2023/01/12 01:38:31;;;;;;;13.38;3.00;;;8.50;99.90;;;;;;5050444;28;20509;-67
2023/01/12 01:40:57;;;;;;;18.58;3.70;;;8.40;99.90;;;;;;5050289;28;20583;-67
2023/01/12 01:43:26;;;;;;;15.80;3.83;;;8.40;99.90;;;;;;5050323;28;20076;-67
2023/01/12 01:46:09;;;;;;;9.55;3.35;;;8.50;99.90;;;;;;5049784;28;20077;-67
2023/01/12 01:48:38;;;;;;;9.15;2.92;;;8.40;99.90;;;;;;5050432;28;20046;-67
2023/01/12 01:51:08;;;;;;;15.85;4.05;;;8.40;99.90;;;;;;5052574;28;20073;-67
2023/01/12 01:53:36;;;;;;;17.15;3.50;;;8.40;99.90;;;;;;5053940;28;20037;-67
2023/01/12 01:56:08;;;;;;;14.82;3.47;;;8.50;99.90;;;;;;5053282;28;20037;-67
2023/01/12 01:58:41;;;;;;;8.82;2.80;;;8.50;99.90;;;;;;5053662;28;20493;-67
2023/01/12 02:01:08;;;;;;;8.50;3.10;;;8.40;99.90;;;;;;5054073;28;20044;-67
2023/01/12 02:03:35;;;;;;;14.50;3.63;;;8.50;99.90;;;;;;5053453;28;20111;-67
2023/01/12 02:06:00;;;;;;;11.52;3.13;;;8.40;99.90;;;;;;5052396;28;20072;-68
2023/01/12 02:08:48;;;;;;;18.45;4.32;;;8.50;99.90;;;;;;5053625;28;20064;-68
2023/01/12 02:17:14;;;;;;;13.75;2.83;;;8.50;99.90;;;;;;5053755;28;20045;-68
2023/01/12 02:20:13;;;;;;;8.65;2.67;;;8.50;99.90;;;;;;5053569;28;20041;-68
2023/01/12 02:23:15;;;;;;;17.45;4.25;;;8.50;99.90;;;;;;5030255;28;20061;-68
2023/01/12 02:25:54;;;;;;;9.82;3.10;;;8.50;99.90;;;;;;5052610;28;20048;-68
2023/01/12 02:28:31;;;;;;;11.93;2.75;;;8.50;99.90;;;;;;5053471;28;20037;-68
2023/01/12 02:31:24;;;;;;;10.75;2.88;;;8.50;99.90;;;;;;5053306;28;20060;-67
2023/01/12 02:34:32;;;;;;;9.90;2.90;;;8.50;99.90;;;;;;5052430;28;20044;-67
2023/01/12 02:37:04;;;;;;;16.23;3.20;;;8.50;99.90;;;;;;5044023;28;20478;-68
2023/01/12 02:39:40;;;;;;;15.32;3.53;;;8.50;99.90;;;;;;5053187;28;20123;-67
2023/01/12 02:42:43;;;;;;;10.48;4.03;;;8.50;99.90;;;;;;5053010;28;20044;-67
2023/01/12 02:45:34;;;;;;;9.75;4.15;;;8.50;99.90;;;;;;5051826;28;20129;-67
2023/01/12 02:48:19;;;;;;;16.17;3.00;;;8.50;99.90;;;;;;5053146;28;20045;-67
2023/01/12 02:51:00;;;;;;;9.85;2.55;;;8.50;99.90;;;;;;5052991;28;20037;-67
2023/01/12 02:53:43;;;;;;;14.40;3.13;;;8.50;99.90;;;;;;5052617;28;20045;-68
2023/01/12 02:56:11;;;;;;;14.60;4.05;;;8.40;99.90;;;;;;5052552;28;20037;-69
2023/01/12 02:58:43;;;;;;;15.88;3.88;;;8.50;99.90;;;;;;5052800;28;20032;-68
2023/01/12 03:01:10;;;;;;;13.75;3.65;;;8.50;99.90;;;;;;5052196;28;20048;-68
2023/01/12 03:03:38;;;;;;;14.30;4.30;;;8.50;99.90;;;;;;5051746;28;20512;-68
2023/01/12 03:06:05;;;;;;;15.98;4.45;;;8.50;99.90;;;;;;5051680;28;20044;-68
2023/01/12 03:08:34;;;;;;;14.55;3.47;;;8.50;99.90;;;;;;5052683;28;20044;-68
2023/01/12 03:11:10;;;;;;;12.57;3.67;;;8.50;99.90;;;;;;5052403;28;20131;-68
2023/01/12 03:13:40;;;;;;;13.02;3.83;;;8.50;99.90;;;;;;5052335;28;20041;-68
2023/01/12 03:16:07;;;;;;;12.00;3.85;;;8.50;99.90;;;;;;5051961;28;20041;-68
2023/01/12 03:18:42;;;;;;;11.60;4.25;;;8.50;99.90;;;;;;5052430;28;20048;-68
2023/01/12 03:21:23;;;;;;;16.45;3.10;;;8.50;99.90;;;;;;5052425;28;20048;-68
2023/01/12 03:23:59;;;;;;;9.38;3.42;;;8.50;99.90;;;;;;5051418;28;20110;-68
2023/01/12 03:26:27;;;;;;;10.23;3.72;;;8.50;99.90;;;;;;5052019;28;20037;-68
2023/01/12 03:29:08;;;;;;;9.15;3.75;;;8.50;99.90;;;;;;5052013;28;20045;-71
2023/01/12 03:31:35;;;;;;;9.48;3.90;;;8.60;99.90;;;;;;5052237;28;20041;-71
2023/01/12 03:34:01;;;;;;;11.15;3.97;;;8.60;99.90;;;;;;5051257;28;20048;-71
2023/01/12 03:36:50;;;;;;;8.38;3.00;;;8.60;99.90;;;;;;5051970;28;20049;-70
2023/01/12 03:39:39;;;;;;;10.10;3.63;;;8.60;99.90;;;;;;5052204;28;20391;-70
2023/01/12 03:42:14;;;;;;;13.60;3.65;;;8.60;99.90;;;;;;5051974;28;20041;-69
2023/01/12 03:45:03;;;;;;;11.63;3.88;;;8.60;99.90;;;;;;5051064;28;20049;-69
2023/01/12 03:47:31;;;;;;;8.18;3.85;;;8.60;99.90;;;;;;5051905;28;20044;-68
2023/01/12 03:50:02;;;;;;;10.00;3.65;;;8.60;99.90;;;;;;5052254;28;20131;-68
2023/01/12 03:52:29;;;;;;;10.00;4.10;;;8.60;99.90;;;;;;5050359;28;20048;-68
2023/01/12 03:54:58;;;;;;;5.68;3.25;;;8.60;99.90;;;;;;5051053;28;20409;-68
2023/01/12 03:57:25;;;;;;;6.10;3.40;;;8.60;99.90;;;;;;5051754;28;20041;-68
2023/01/12 03:59:52;;;;;;;6.95;3.35;;;8.60;99.90;;;;;;5051442;28;20531;-68
2023/01/12 04:02:17;;;;;;;9.38;4.10;;;8.60;99.90;;;;;;5051569;28;20044;-68
2023/01/12 04:04:43;;;;;;;7.18;3.20;;;8.60;99.90;;;;;;5050431;28;20041;-68
2023/01/12 04:07:08;;;;;;;7.18;3.55;;;8.60;99.90;;;;;;5051242;28;20037;-68
2023/01/12 04:09:34;;;;;;;6.18;3.42;;;8.60;99.90;;;;;;5051559;28;20108;-68
2023/01/12 04:12:09;;;;;;;7.07;2.90;;;8.60;99.90;;;;;;5051152;28;20485;-68
2023/01/12 04:14:41;;;;;;;5.82;2.75;;;8.60;99.90;;;;;;5050125;28;20036;-68
2023/01/12 04:17:09;;;;;;;8.10;2.63;;;8.60;99.90;;;;;;5051356;28;20037;-68
2023/01/12 04:19:35;;;;;;;9.27;2.90;;;8.60;99.90;;;;;;5051136;28;20517;-69
2023/01/12 04:24:44;;;;;;;7.72;2.78;;;8.70;99.90;;;;;;5050211;28;20409;-69
2023/01/12 04:27:10;;;;;;;6.63;3.28;;;8.70;99.90;;;;;;5051007;28;20066;-68
2023/01/12 04:29:35;;;;;;;5.75;2.35;;;8.70;99.90;;;;;;5051115;28;20119;-68
2023/01/12 04:32:02;;;;;;;5.43;2.28;;;8.70;99.90;;;;;;5051127;28;20043;-68
2023/01/12 04:34:27;;;;;;;7.50;2.40;;;8.70;99.90;;;;;;5050293;28;20124;-68
2023/01/12 04:36:53;;;;;;;7.70;2.17;;;8.60;99.90;;;;;;5051224;28;20566;-69
2023/01/12 04:39:19;;;;;;;5.60;2.05;;;8.60;99.90;;;;;;5050848;28;20095;-69
2023/01/12 04:41:44;;;;;;;5.43;2.13;;;8.70;99.90;;;;;;5050792;28;20086;-69
2023/01/12 04:44:10;;;;;;;5.40;1.75;;;8.70;99.90;;;;;;5050109;28;20041;-71
2023/01/12 04:46:35;;;;;;;7.22;2.15;;;8.70;99.90;;;;;;5051136;28;20520;-70
2023/01/12 04:49:01;;;;;;;3.38;1.88;;;8.60;99.90;;;;;;5050948;28;20041;-70
2023/01/12 04:51:26;;;;;;;7.32;2.15;;;8.60;99.90;;;;;;5049865;28;20478;-70
2023/01/12 04:53:52;;;;;;;4.72;1.80;;;8.60;99.90;;;;;;5049803;28;20051;-70
2023/01/12 04:56:18;;;;;;;3.70;1.63;;;8.60;99.90;;;;;;5050726;28;20397;-69
2023/01/12 04:58:44;;;;;;;4.68;1.90;;;8.60;99.90;;;;;;5050425;28;20045;-69
2023/01/12 05:01:17;;;;;;;3.05;1.80;;;8.60;99.90;;;;;;5049189;28;20098;-70
2023/01/12 05:03:44;;;;;;;3.80;2.03;;;8.60;99.90;;;;;;5050166;28;20090;-70
2023/01/12 05:06:10;;;;;;;3.50;1.75;;;8.60;99.90;;;;;;5050645;28;20049;-70
2023/01/12 05:11:23;;;;;;;2.58;1.40;;;8.60;99.90;;;;;;5050830;28;20041;-72
2023/01/12 05:13:49;;;;;;;4.05;1.50;;;8.60;99.90;;;;;;5049871;28;20052;-71
2023/01/12 05:16:17;;;;;;;4.30;1.40;;;8.60;99.90;;;;;;5050813;28;20041;-71
2023/01/12 05:18:43;;;;;;;1.83;1.42;;;8.50;99.90;;;;;;5050662;28;20048;-72
2023/01/12 05:21:10;;;;;;;5.35;2.00;;;8.50;99.90;;;;;;5050449;28;20048;-72
2023/01/12 05:23:36;;;;;;;5.43;1.92;;;8.50;99.90;;;;;;5050445;28;20076;-72
2023/01/12 05:26:04;;;;;;;2.10;1.42;;;8.50;99.90;;;;;;5052036;28;20783;-71
2023/01/12 05:28:31;;;;;;;5.65;2.13;;;8.50;99.90;;;;;;5054637;28;20033;-72
2023/01/12 05:31:05;;;;;;;3.35;1.50;;;8.50;99.90;;;;;;5054336;28;20414;-71
2023/01/12 05:33:31;;;;;;;3.75;1.30;;;8.50;99.90;;;;;;5054493;28;20040;-71
2023/01/12 05:35:57;;;;;;;4.80;2.88;;;8.50;99.90;;;;;;5053375;28;20041;-70
2023/01/12 05:38:22;;;;;;;4.65;1.50;;;8.50;99.90;;;;;;5054446;28;20048;-71
2023/01/12 05:40:48;;;;;;;4.88;2.00;;;8.50;99.90;;;;;;5054285;28;20120;-70
2023/01/12 05:46:03;;;;;;;4.55;1.80;;;8.50;99.90;;;;;;5053468;28;20515;-69
2023/01/12 05:48:29;;;;;;;6.70;1.40;;;8.50;99.90;;;;;;5054177;28;20040;-70
2023/01/12 05:51:02;;;;;;;4.13;1.73;;;8.50;99.90;;;;;;5054100;28;20032;-71
2023/01/12 05:53:28;;;;;;;;;;;8.50;99.90;;;;;;5054389;28;20045;-72
2023/01/12 05:55:53;;;;;;;2.65;1.52;;;8.50;99.90;;;;;;5053140;28;19916;-71
2023/01/12 05:58:19;;;;;;;1.60;1.30;;;8.50;99.90;;;;;;5053956;28;20760;-70
2023/01/12 06:00:45;;;;;;;5.80;1.70;;;8.50;99.90;;;;;;5053903;28;20128;-70
2023/01/12 06:03:11;;;;;;;4.05;1.30;;;8.50;99.90;;;;;;5053881;28;20088;-70
2023/01/12 06:05:36;;;;;;;2.40;1.83;;;8.50;99.90;;;;;;5052995;28;20442;-71
2023/01/12 06:08:02;;;;;;;3.67;1.85;;;8.50;99.90;;;;;;5053765;28;20398;-71
2023/01/12 06:10:28;;;;;;;4.20;1.75;;;8.60;99.90;;;;;;5053752;28;20407;-71
2023/01/12 06:15:38;;;;;;;3.80;1.77;;;8.60;99.90;;;;;;5052840;28;20052;-70
2023/01/12 06:18:03;;;;;;;2.05;1.40;;;8.60;99.90;;;;;;5053411;28;20044;-71
2023/01/12 06:20:29;;;;;;;5.03;1.70;;;8.60;99.90;;;;;;5053513;28;20045;-70
2023/01/12 06:22:58;;;;;;;2.35;1.50;;;8.60;99.90;;;;;;5053295;28;20041;-70
2023/01/12 06:25:24;;;;;;;3.13;1.73;;;8.60;99.90;;;;;;5052614;28;20120;-70
2023/01/12 06:27:49;;;;;;;3.00;1.80;;;8.60;99.90;;;;;;5053302;28;20116;-70
2023/01/12 06:30:15;;;;;;;2.65;1.75;;;8.60;99.90;;;;;;5053345;28;20442;-70
2023/01/12 06:32:40;;;;;;;5.32;1.88;;;8.70;99.90;;;;;;5053413;28;20045;-71
2023/01/12 06:35:06;;;;;;;4.35;1.40;;;8.70;99.90;;;;;;5052420;28;20065;-70
2023/01/12 06:37:32;;;;;;;5.13;2.00;;;8.70;99.90;;;;;;5052860;28;20536;-70
2023/01/12 06:39:57;;;;;;;3.45;1.65;;;8.70;99.90;;;;;;5053081;28;20109;-69
2023/01/12 06:42:29;;;;;;;1.98;1.33;;;8.70;99.90;;;;;;5051543;28;20037;-69
2023/01/12 06:45:01;;;;;;;4.40;1.48;;;8.80;99.90;;;;;;5052025;28;20048;-69
2023/01/12 06:47:29;;;;;;;5.55;1.90;;;8.70;99.90;;;;;;5053058;28;20108;-69
2023/01/12 06:49:55;;;;;;;4.35;1.77;;;8.80;99.90;;;;;;5052962;28;20116;-69
2023/01/12 06:52:23;;;;;;;3.63;1.55;;;8.80;99.90;;;;;;5052666;28;20116;-69
2023/01/12 06:54:49;;;;;;;4.25;1.63;;;8.80;99.90;;;;;;5051930;28;20405;-69
2023/01/12 06:57:15;;;;;;;2.63;2.15;;;8.80;99.90;;;;;;5052816;28;20052;-69
2023/01/12 06:59:41;;;;;;;1.50;1.40;;;8.90;99.90;;;;;;5052665;28;20037;-68
2023/01/12 07:02:11;;;;;;;3.50;1.20;;;8.90;99.90;;;;;;5052462;28;20040;-68
2023/01/12 07:04:37;;;;;;;2.10;1.50;;;8.90;99.90;;;;;;5051910;28;20116;-68
2023/01/12 07:07:03;;;;;;;2.38;1.45;;;8.90;99.90;;;;;;5052387;28;20158;-68
2023/01/12 07:09:28;;;;;;;1.92;1.40;;;9.00;99.90;;;;;;5052738;28;20082;-68
2023/01/12 07:11:54;;;;;;;2.70;1.63;;;9.00;99.90;;;;;;5052523;28;20049;-68
2023/01/12 07:14:19;;;;;;;2.80;1.60;;;9.00;99.90;;;;;;5051752;28;20401;-68
2023/01/12 07:16:45;;;;;;;1.40;1.30;;;9.00;99.90;;;;;;5052239;28;20512;-68
2023/01/12 07:19:10;;;;;;;1.40;1.30;;;9.00;99.90;;;;;;5052446;28;20445;-69
2023/01/12 07:21:36;;;;;;;1.63;1.30;;;9.00;99.90;;;;;;5052213;28;20544;-67
2023/01/12 07:24:01;;;;;;;2.65;1.20;;;9.00;99.90;;;;;;5051338;28;20374;-67
2023/01/12 07:26:27;;;;;;;1.30;1.20;;;9.00;99.90;;;;;;5052304;28;20198;-67
2023/01/12 07:28:54;;;;;;;2.95;2.22;;;9.10;99.90;;;;;;5050749;28;20037;-68
2023/01/12 07:31:20;;;;;;;2.67;1.50;;;9.10;99.90;;;;;;5034196;28;20129;-67
2023/01/12 07:33:45;;;;;;;2.25;1.45;;;9.10;99.90;;;;;;5051178;28;20107;-67
2023/01/12 07:36:11;;;;;;;2.38;1.60;;;9.10;99.90;;;;;;5052239;28;20507;-67
2023/01/12 07:38:37;;;;;;;1.55;1.45;;;9.10;99.90;;;;;;5052077;28;20037;-67
2023/01/12 07:41:03;;;;;;;2.55;1.67;;;9.10;99.90;;;;;;5051819;28;20059;-66
2023/01/12 07:43:32;;;;;;;2.47;1.50;;;9.10;99.90;;;;;;5051858;28;20033;-66
2023/01/12 07:45:58;;;;;;;3.13;1.35;;;9.10;99.90;;;;;;5051122;28;20075;-66
2023/01/12 07:48:26;;;;;;;1.55;1.20;;;9.10;99.90;;;;;;5051339;28;20037;-67
2023/01/12 07:50:52;;;;;;;2.00;1.50;;;9.20;99.90;;;;;;5051941;28;20043;-66
2023/01/12 07:53:19;;;;;;;3.42;1.25;;;9.20;99.90;;;;;;5051634;28;20051;-67
2023/01/12 07:55:44;;;;;;;3.33;1.52;;;9.20;99.90;;;;;;5051084;28;20060;-67
2023/01/12 07:58:10;;;;;;;2.28;1.60;;;9.20;99.90;;;;;;5051530;28;20037;-67
2023/01/12 08:00:36;;;;;;;2.17;1.63;;;9.20;99.90;;;;;;5051702;28;20433;-67
2023/01/12 08:03:08;;;;;;;2.45;1.55;;;9.20;99.90;;;;;;5051499;28;20033;-67
2023/01/12 08:05:35;;;;;;;2.47;1.75;;;9.20;99.90;;;;;;5050640;28;20124;-68
2023/01/12 08:08:01;;;;;;;1.55;1.40;;;9.20;99.90;;;;;;5051525;28;20424;-68
2023/01/12 08:10:27;;;;;;;1.60;1.50;;;9.20;99.90;;;;;;5050629;28;20078;-68
2023/01/12 08:12:53;;;;;;;1.70;1.60;;;9.20;99.90;;;;;;5046856;28;20041;-68
2023/01/12 08:15:19;;;;;;;1.88;1.77;;;9.20;99.90;;;;;;5049243;28;20045;-68
2023/01/12 08:17:49;;;;;;;2.65;1.60;;;9.20;99.90;;;;;;5050250;28;20044;-69
2023/01/12 08:20:22;;;;;;;2.22;1.40;;;9.30;99.90;;;;;;5051440;28;20048;-68
2023/01/12 08:22:51;;;;;;;4.28;1.90;;;9.30;99.90;;;;;;5042349;28;20628;-67
2023/01/12 08:25:22;;;;;;;3.38;1.80;;;9.30;99.90;;;;;;5049425;28;20040;-68
2023/01/12 08:27:52;;;;;;;2.03;1.92;;;9.30;99.90;;;;;;5049348;28;20072;-68
2023/01/12 08:30:21;;;;;;;1.77;1.67;;;9.30;99.90;;;;;;5049447;28;20053;-68
2023/01/12 08:32:47;;;;;;;2.50;1.80;;;9.30;99.90;;;;;;5050833;28;20040;-70
2023/01/12 08:35:17;;;;;;;1.75;1.65;;;9.30;99.90;;;;;;5046704;28;20501;-70
2023/01/12 08:37:42;;;;;;;2.15;1.90;;;9.40;99.90;;;;;;5050914;28;20509;-70
2023/01/12 08:40:09;;;;;;;2.20;1.98;;;9.40;99.90;;;;;;5051166;28;20037;-70
2023/01/12 08:42:34;;;;;;;2.13;1.83;;;9.40;99.90;;;;;;5051112;28;20048;-69
2023/01/12 08:45:00;;;;;;;1.95;1.85;;;9.40;99.90;;;;;;5050209;28;20037;-69
2023/01/12 08:47:29;;;;;;;4.97;2.00;;;9.50;99.90;;;;;;5051027;28;20060;-69
2023/01/12 08:49:55;;;;;;;2.55;2.05;;;9.50;99.90;;;;;;5051013;28;20037;-69
2023/01/12 08:52:20;;;;;;;2.75;2.08;;;9.50;99.90;;;;;;5051080;28;20048;-69
2023/01/12 08:54:46;;;;;;;1.83;1.65;;;9.50;99.90;;;;;;5050178;28;20041;-69
2023/01/12 08:57:12;;;;;;;3.30;2.20;;;9.50;99.90;;;;;;5051180;28;20039;-69
2023/01/12 08:59:38;;;;;;;2.72;1.95;;;9.50;99.90;;;;;;5050692;28;20454;-68
2023/01/12 09:02:04;;;;;;;2.88;2.30;;;9.60;99.90;;;;;;5055152;28;20379;-68
2023/01/12 09:04:29;;;;;;;3.35;1.90;;;9.60;99.90;;;;;;5054106;28;20090;-67
2023/01/12 09:06:55;;;;;;;2.63;2.15;;;9.60;99.90;;;;;;5055033;28;20493;-67
2023/01/12 09:09:21;;;;;;;2.42;1.73;;;9.60;99.90;;;;;;5059707;28;20494;-67
2023/01/12 09:11:48;;;;;;;4.55;1.75;;;9.70;99.90;;;;;;5064419;28;20082;-67
2023/01/12 09:14:15;;;;;;;3.65;2.10;;;9.70;99.90;;;;;;5062626;28;20051;-67
2023/01/12 09:16:41;;;;;;;4.13;2.00;;;9.70;99.90;;;;;;5054787;28;20047;-67
2023/01/12 09:19:07;;;;;;;4.60;2.65;;;9.80;99.90;;;;;;5054417;28;20526;-67
2023/01/12 09:21:37;;;;;;;8.80;2.47;;;9.90;99.90;;;;;;5054459;28;20513;-67
2023/01/12 09:24:03;;;;;;;8.75;2.20;;;9.90;99.90;;;;;;5053480;28;20512;-67
2023/01/12 09:26:34;;;;;;;11.13;2.33;;;9.90;99.90;;;;;;5054563;28;20112;-67
2023/01/12 09:29:03;;;;;;;5.65;2.63;;;10.00;99.90;;;;;;5054108;28;20043;-68
2023/01/12 09:31:30;;;;;;;8.93;2.75;;;10.00;99.90;;;;;;5059472;28;20044;-69
2023/01/12 09:33:56;;;;;;;8.45;2.58;;;10.10;99.90;;;;;;5063627;28;20033;-70
2023/01/12 09:36:24;;;;;;;13.85;3.47;;;10.10;99.90;;;;;;5057473;28;20033;-70
2023/01/12 09:38:51;;;;;;;18.35;3.22;;;10.10;99.90;;;;;;5061512;28;20076;-70
2023/01/12 09:46:57;;;;;;;12.70;3.10;;;10.10;99.90;;;;;;5065268;28;20068;-69
2023/01/12 09:46:59;;;;;;;17.88;3.15;;;10.20;99.90;;;;;;5064247;28;20036;-68
2023/01/12 09:49:33;;;;;;;16.60;2.50;;;10.20;99.90;;;;;;5061697;28;20032;-67
2023/01/12 09:52:05;;;;;;;19.40;3.60;;;10.30;99.90;;;;;;5064341;28;20033;-67
2023/01/12 09:54:33;;;;;;;19.73;3.17;;;10.30;99.90;;;;;;5064124;28;20032;-67
2023/01/12 09:57:33;;;;;;;17.95;2.90;;;10.30;99.90;;;;;;5061611;28;20066;-67
2023/01/12 10:00:05;;;;;;;15.07;2.63;;;10.40;99.90;;;;;;5046282;28;20127;-68
2023/01/12 10:02:36;;;;;;;16.60;3.92;;;10.40;99.90;;;;;;5061804;28;20071;-67
2023/01/12 10:05:14;;;;;;;15.43;3.53;;;10.40;99.90;;;;;;5058529;28;20121;-68
2023/01/12 10:07:40;;;;;;;15.73;2.90;;;10.50;99.90;;;;;;5058541;28;20045;-68
2023/01/12 10:10:08;;;;;;;15.25;2.80;;;10.50;99.90;;;;;;5063271;28;20051;-68
2023/01/12 10:12:40;;;;;;;17.40;3.00;;;10.50;99.90;;;;;;5072981;28;20086;-67
2023/01/12 10:15:26;;;;;;;15.38;3.47;;;10.50;99.90;;;;;;5072643;28;20401;-67
2023/01/12 10:18:10;;;;;;;28.08;6.00;;;10.60;99.90;;;;;;5072435;28;20055;-68
2023/01/12 10:20:40;;;;;;;23.13;3.53;;;10.60;99.90;;;;;;5073689;28;20051;-67
2023/01/12 10:23:06;;;;;;;19.25;3.22;;;10.60;99.90;;;;;;5073577;28;20551;-67
2023/01/12 10:25:49;;;;;;;14.85;2.55;;;10.70;99.90;;;;;;5072572;28;20041;-69
2023/01/12 10:28:25;;;;;;;18.88;2.60;;;10.70;99.90;;;;;;5073513;28;20047;-70
2023/01/12 10:30:52;;;;;;;13.55;2.60;;;10.70;99.90;;;;;;5065522;28;20500;-70
2023/01/12 10:33:20;;;;;;;12.90;2.42;;;10.70;99.90;;;;;;5053746;28;20037;-70
2023/01/12 10:35:53;;;;;;;13.45;2.20;;;10.70;99.90;;;;;;5052185;28;20044;-70
2023/01/12 10:38:33;;;;;;;8.25;2.30;;;10.70;99.90;;;;;;5053455;28;20037;-70
2023/01/12 10:41:09;;;;;;;16.05;3.92;;;10.70;99.90;;;;;;5053048;28;20532;-71
2023/01/12 10:43:35;;;;;;;18.25;4.00;;;10.70;99.90;;;;;;5053185;28;20171;-68
2023/01/12 10:46:23;;;;;;;11.88;2.33;;;10.70;99.90;;;;;;5054074;28;20045;-67
2023/01/12 10:48:54;;;;;;;8.70;1.77;;;10.80;99.90;;;;;;5055675;28;20390;-67
2023/01/12 10:51:30;;;;;;;13.25;2.75;;;10.80;99.90;;;;;;5047360;28;20044;-68
2023/01/12 10:54:16;;;;;;;8.15;2.22;;;10.80;99.90;;;;;;5043519;28;20094;-68
2023/01/12 10:56:52;;;;;;;10.88;2.90;;;10.80;99.90;;;;;;5037968;28;20046;-69
2023/01/12 10:59:20;;;;;;;10.18;3.05;;;10.80;99.90;;;;;;5031354;28;20049;-72
2023/01/12 11:01:50;;;;;;;5.70;1.80;;;10.70;99.90;;;;;;5035262;28;20048;-71
2023/01/12 11:04:22;;;;;;;15.50;2.30;;;10.70;99.90;;;;;;5049293;28;20109;-71
2023/01/12 11:07:00;;;;;;;10.53;2.67;;;10.70;99.90;;;;;;5049777;28;20049;-69
2023/01/12 11:09:28;;;;;;;15.23;2.75;;;10.80;99.90;;;;;;5052060;28;20671;-69
2023/01/12 11:12:00;;;;;;;12.48;3.13;;;10.80;99.90;;;;;;5051278;28;20508;-68
2023/01/12 11:14:30;;;;;;;14.63;2.60;;;10.80;99.90;;;;;;5049549;28;20041;-67
2023/01/12 11:17:33;;;;;;;11.50;3.15;;;10.80;99.90;;;;;;5051714;28;20068;-68
2023/01/12 11:20:00;;;;;;;17.15;2.67;;;10.90;99.90;;;;;;5051561;28;20048;-68
2023/01/12 11:22:36;;;;;;;16.38;3.70;;;10.90;99.90;;;;;;5050888;28;20088;-67
2023/01/12 11:25:23;;;;;;;9.68;2.25;;;10.90;99.90;;;;;;5049878;28;20516;-67
2023/01/12 11:28:06;;;;;;;15.07;3.85;;;11.00;99.90;;;;;;5051764;28;20083;-67
2023/01/12 11:30:55;;;;;;;10.50;2.95;;;10.90;99.90;;;;;;5051368;28;20036;-68
2023/01/12 11:33:30;;;;;;;19.90;3.72;;;11.00;99.90;;;;;;5050199;28;20091;-68
2023/01/12 11:36:19;;;;;;;16.50;3.40;;;11.00;99.90;;;;;;5050865;28;20374;-70
2023/01/12 11:39:05;;;;;;;12.52;1.98;;;11.00;99.90;;;;;;5062492;28;20037;-68
2023/01/12 11:41:36;;;;;;;11.52;2.90;;;11.00;99.90;;;;;;5050680;28;20431;-67
2023/01/12 11:44:29;;;;;;;13.75;2.60;;;11.00;99.90;;;;;;5050663;28;20405;-68
2023/01/12 11:47:03;;;;;;;14.00;3.58;;;11.10;99.90;;;;;;5051237;28;20045;-67
2023/01/12 11:49:43;;;;;;;17.70;2.83;;;11.10;99.90;;;;;;5051578;28;20041;-67
2023/01/12 11:52:12;;;;;;;17.20;2.65;;;11.10;99.90;;;;;;5050804;28;20505;-67
2023/01/12 11:54:38;;;;;;;15.85;2.53;;;11.10;99.90;;;;;;5050135;28;20129;-67
2023/01/12 11:57:40;;;;;;;13.38;2.47;;;11.10;99.90;;;;;;5051044;28;20041;-67
2023/01/12 12:00:28;;;;;;;12.02;2.20;;;11.10;99.90;;;;;;5050790;28;20120;-67
2023/01/12 12:03:12;;;;;;;13.18;2.38;;;11.20;99.90;;;;;;5051175;28;20375;-67
2023/01/12 12:06:02;;;;;;;10.15;2.10;;;11.20;99.90;;;;;;5050135;28;20049;-67
2023/01/12 12:08:59;;;;;;;12.23;2.70;;;11.20;99.90;;;;;;5051209;28;20116;-66
2023/01/12 12:12:02;;;;;;;15.48;2.53;;;11.20;99.90;;;;;;5051180;28;20507;-67
2023/01/12 12:14:59;;;;;;;18.80;3.58;;;11.30;99.90;;;;;;5049634;28;20053;-66
2023/01/12 12:17:43;;;;;;;11.82;2.13;;;11.30;99.90;;;;;;5051335;28;20083;-66
2023/01/12 12:20:26;;;;;;;12.13;3.17;;;11.20;99.90;;;;;;5051117;28;20049;-67
2023/01/12 12:23:16;;;;;;;16.88;2.50;;;11.20;99.90;;;;;;5051045;28;20532;-67
2023/01/12 12:26:10;;;;;;;16.88;3.60;;;11.10;99.90;;;;;;5050092;28;20517;-67
2023/01/12 12:28:47;;;;;;;11.77;2.22;;;11.10;99.90;;;;;;5050802;28;20179;-67
2023/01/12 12:31:38;;;;;;;20.95;2.95;;;11.10;99.90;;;;;;5065813;28;20033;-67
2023/01/12 12:34:33;;;;;;;13.20;2.30;;;11.10;99.90;;;;;;5069421;28;20102;-68
2023/01/12 12:37:11;;;;;;;20.80;4.28;;;11.10;99.90;;;;;;5070787;28;20489;-67
2023/01/12 12:39:48;;;;;;;14.73;2.72;;;11.20;99.90;;;;;;5052256;28;20214;-67
2023/01/12 12:45:24;;;;;;;13.88;2.67;;;11.20;99.90;;;;;;5029219;28;20049;-67
2023/01/12 12:48:05;;;;;;;19.85;2.58;;;11.20;99.90;;;;;;5030692;28;20038;-67
2023/01/12 12:50:33;;;;;;;14.32;2.33;;;11.20;99.90;;;;;;5032662;28;20033;-67
2023/01/12 12:53:16;;;;;;;20.20;2.58;;;11.20;99.90;;;;;;5049958;28;20068;-67
2023/01/12 12:55:42;;;;;;;15.30;2.58;;;11.20;99.90;;;;;;5047850;28;20558;-67
2023/01/12 12:58:20;;;;;;;15.10;3.38;;;11.20;99.90;;;;;;5049833;28;20144;-67
2023/01/12 13:00:46;;;;;;;18.42;4.32;;;11.30;99.90;;;;;;5049215;28;20508;-66
2023/01/12 13:03:38;;;;;;;12.30;2.38;;;11.30;99.90;;;;;;5050561;28;20041;-67
2023/01/12 13:06:09;;;;;;;12.70;2.45;;;11.30;99.90;;;;;;5045621;28;20075;-67
2023/01/12 13:08:35;;;;;;;13.38;3.63;;;11.30;99.90;;;;;;5050435;28;20569;-66
2023/01/12 13:11:01;;;;;;;15.18;2.28;;;11.30;99.90;;;;;;5050898;28;20120;-67
2023/01/12 13:13:32;;;;;;;11.52;2.15;;;11.30;99.90;;;;;;5050596;28;20435;-66
2023/01/12 13:16:10;;;;;;;17.35;3.25;;;11.30;99.90;;;;;;5048937;28;20045;-66
2023/01/12 13:19:03;;;;;;;15.68;2.55;;;11.30;99.90;;;;;;5050514;28;20632;-67
2023/01/12 13:21:41;;;;;;;17.98;2.53;;;11.30;99.90;;;;;;5050459;28;20037;-66
2023/01/12 13:24:10;;;;;;;9.50;1.95;;;11.30;99.90;;;;;;5049581;28;20121;-66
2023/01/12 13:26:42;;;;;;;14.57;2.63;;;11.30;99.90;;;;;;5050730;28;20047;-67
2023/01/12 13:29:26;;;;;;;13.13;3.00;;;11.30;99.90;;;;;;5050204;28;20049;-67
2023/01/12 13:32:30;;;;;;;14.57;2.33;;;11.30;99.90;;;;;;5050440;28;20498;-67
2023/01/12 13:34:56;;;;;;;19.52;3.05;;;11.30;99.90;;;;;;5049638;28;20498;-67
2023/01/12 13:37:42;;;;;;;15.00;2.67;;;11.30;99.90;;;;;;5049131;28;20047;-67
2023/01/12 13:40:18;;;;;;;14.15;2.40;;;11.30;99.90;;;;;;5050532;28;20451;-66
2023/01/12 13:45:29;;;;;;;4.47;1.90;;;11.30;99.90;;;;;;5049690;28;20056;-67